createdAt,value
2019-04-20T00:01:35.383Z,8.15
2019-04-20T00:04:03.190Z,7.50
2019-04-20T00:06:31.748Z,7.55
2019-04-20T00:09:04.685Z,7.60
2019-04-20T00:11:36.514Z,7.67
2019-04-20T00:14:04.097Z,7.17
2019-04-20T00:16:23.316Z,7.47
2019-04-20T00:18:53.939Z,7.20
2019-04-20T00:21:46.962Z,7.08
2019-04-20T00:24:15.651Z,7.33
2019-04-20T00:29:27.721Z,7.30
2019-04-20T00:31:45.855Z,6.58
2019-04-20T00:34:09.164Z,6.97
2019-04-20T00:36:32.879Z,7.60
2019-04-20T00:39:02.656Z,6.90
2019-04-20T00:41:34.086Z,6.37
2019-04-20T00:44:04.684Z,6.70
2019-04-20T00:46:33.618Z,7.37
2019-04-20T00:49:06.893Z,6.97
2019-04-20T00:51:39.410Z,6.72
2019-04-20T00:53:57.298Z,6.78
2019-04-20T00:56:24.361Z,6.42
2019-04-20T00:59:06.421Z,6.25
2019-04-20T01:01:37.900Z,7.17
2019-04-20T01:04:06.875Z,6.60
2019-04-20T01:06:39.541Z,7.00
2019-04-20T01:08:53.035Z,7.37
2019-04-20T01:11:27.000Z,6.50
2019-04-20T01:13:52.717Z,6.20
2019-04-20T01:16:25.526Z,6.92
2019-04-20T01:18:47.226Z,7.65
2019-04-20T01:21:18.041Z,7.22
2019-04-20T01:23:50.700Z,6.55
2019-04-20T01:26:14.493Z,6.90
2019-04-20T01:28:56.625Z,6.92
2019-04-20T01:31:18.662Z,6.95
2019-04-20T01:33:48.348Z,7.15
2019-04-20T01:36:25.557Z,6.83
2019-04-20T01:38:47.610Z,7.08
2019-04-20T01:41:01.235Z,7.00
2019-04-20T01:43:29.059Z,7.03
2019-04-20T01:46:03.306Z,8.40
2019-04-20T01:48:30.155Z,7.12
2019-04-20T01:51:19.585Z,8.40
2019-04-20T01:54:00.471Z,7.55
2019-04-20T01:56:31.594Z,7.67
2019-04-20T01:59:04.616Z,7.85
2019-04-20T02:01:21.103Z,7.75
2019-04-20T02:03:57.162Z,7.53
2019-04-20T02:06:39.926Z,8.05
2019-04-20T02:09:06.726Z,7.58
2019-04-20T02:11:34.492Z,7.60
2019-04-20T02:14:00.418Z,8.58
2019-04-20T02:16:33.664Z,8.20
2019-04-20T02:19:26.621Z,7.30
2019-04-20T02:21:55.451Z,7.35
2019-04-20T02:24:10.922Z,7.35
2019-04-20T02:26:38.843Z,7.55
2019-04-20T02:29:30.694Z,7.17
2019-04-20T02:32:11.678Z,7.83
2019-04-20T02:34:57.734Z,8.78
2019-04-20T02:40:16.014Z,8.30
2019-04-20T02:42:34.681Z,7.55
2019-04-20T02:45:14.790Z,7.78
2019-04-20T02:47:33.822Z,7.62
2019-04-20T02:50:15.719Z,8.73
2019-04-20T02:55:06.368Z,7.70
2019-04-20T03:02:06.384Z,7.75
2019-04-20T03:04:29.060Z,7.62
2019-04-20T03:07:04.162Z,8.10
2019-04-20T03:09:36.430Z,7.70
2019-04-20T03:12:10.614Z,8.18
2019-04-20T03:14:26.525Z,7.45
2019-04-20T03:17:12.752Z,8.20
2019-04-20T03:19:30.212Z,7.37
2019-04-20T03:22:05.190Z,6.85
2019-04-20T03:24:33.741Z,8.33
2019-04-20T03:26:56.672Z,6.97
2019-04-20T03:29:47.010Z,6.67
2019-04-20T03:32:49.986Z,6.92
2019-04-20T03:37:22.199Z,7.22
2019-04-20T03:39:41.648Z,7.67
2019-04-20T03:41:54.874Z,7.97
2019-04-20T03:44:25.620Z,7.97
2019-04-20T03:46:54.078Z,7.35
2019-04-20T03:49:43.912Z,7.58
2019-04-20T03:52:23.434Z,8.00
2019-04-20T03:55:01.358Z,8.63
2019-04-20T03:57:51.393Z,8.00
2019-04-20T04:00:30.439Z,8.15
2019-04-20T04:03:12.383Z,9.58
2019-04-20T04:05:36.870Z,8.70
2019-04-20T04:08:04.308Z,10.15
2019-04-20T04:10:35.323Z,7.95
2019-04-20T04:13:05.300Z,8.53
2019-04-20T04:15:36.146Z,8.48
2019-04-20T04:18:07.375Z,8.08
2019-04-20T04:20:38.799Z,8.70
2019-04-20T04:23:18.431Z,8.95
2019-04-20T04:25:39.751Z,8.95
2019-04-20T04:28:12.917Z,8.30
2019-04-20T04:30:34.197Z,8.48
2019-04-20T04:33:32.197Z,9.15
2019-04-20T04:35:38.818Z,8.30
2019-04-20T04:38:14.293Z,8.08
2019-04-20T04:40:53.655Z,8.30
2019-04-20T04:43:10.233Z,8.13
2019-04-20T04:45:23.624Z,8.55
2019-04-20T04:47:47.393Z,8.58
2019-04-20T04:50:19.257Z,9.93
2019-04-20T04:52:52.206Z,8.50
2019-04-20T04:55:25.000Z,8.53
2019-04-20T04:57:39.221Z,8.75
2019-04-20T05:00:16.571Z,8.75
2019-04-20T05:02:46.457Z,9.00
2019-04-20T05:05:47.419Z,8.28
2019-04-20T05:08:01.667Z,9.13
2019-04-20T05:10:18.968Z,8.70
2019-04-20T05:12:46.050Z,8.35
2019-04-20T05:15:22.608Z,8.70
2019-04-20T05:18:02.094Z,8.90
2019-04-20T05:20:31.946Z,9.10
2019-04-20T05:23:02.579Z,8.73
2019-04-20T05:25:55.584Z,8.45
2019-04-20T05:28:19.143Z,8.68
2019-04-20T05:30:40.322Z,8.43
2019-04-20T05:33:07.788Z,7.45
2019-04-20T05:35:49.662Z,7.45
2019-04-20T05:38:25.663Z,8.73
2019-04-20T05:40:45.909Z,7.95
2019-04-20T05:43:26.469Z,8.05
2019-04-20T05:45:43.755Z,7.60
2019-04-20T05:48:11.947Z,7.70
2019-04-20T05:50:45.298Z,8.53
2019-04-20T05:53:14.761Z,7.00
2019-04-20T05:55:43.307Z,7.55
2019-04-20T05:58:08.947Z,7.37
2019-04-20T06:00:41.245Z,7.70
2019-04-20T06:03:07.372Z,6.65
2019-04-20T06:05:43.237Z,7.40
2019-04-20T06:08:05.160Z,7.50
2019-04-20T06:10:42.159Z,7.17
2019-04-20T06:13:11.394Z,7.00
2019-04-20T06:15:55.993Z,6.53
2019-04-20T06:18:32.647Z,7.65
2019-04-20T06:21:17.212Z,7.20
2019-04-20T06:26:44.255Z,7.55
2019-04-20T06:28:53.938Z,7.30
2019-04-20T06:31:35.618Z,7.42
2019-04-20T06:34:30.496Z,7.22
2019-04-20T06:37:00.518Z,7.20
2019-04-20T06:39:38.626Z,6.95
2019-04-20T06:42:21.563Z,6.85
2019-04-20T06:44:57.549Z,7.20
2019-04-20T06:47:17.673Z,7.03
2019-04-20T06:50:00.442Z,6.75
2019-04-20T06:52:26.175Z,6.45
2019-04-20T06:54:58.139Z,7.17
2019-04-20T06:57:33.229Z,6.58
2019-04-20T07:02:31.416Z,6.50
2019-04-20T07:04:59.674Z,6.03
2019-04-20T07:07:45.435Z,6.37
2019-04-20T07:10:16.327Z,6.72
2019-04-20T07:12:39.596Z,6.72
2019-04-20T07:15:21.349Z,6.33
2019-04-20T07:20:35.104Z,5.37
2019-04-20T07:23:13.537Z,4.62
2019-04-20T07:25:34.540Z,7.10
2019-04-20T07:28:09.733Z,5.30
2019-04-20T07:30:29.677Z,5.30
2019-04-20T07:32:57.946Z,4.75
2019-04-20T07:41:24.870Z,5.42
2019-04-20T07:43:48.751Z,5.30
2019-04-20T07:46:20.834Z,5.15
2019-04-20T07:48:54.096Z,5.00
2019-04-20T07:51:12.173Z,5.00
2019-04-20T07:54:10.749Z,5.45
2019-04-20T07:56:39.365Z,5.58
2019-04-20T07:58:52.722Z,4.92
2019-04-20T08:02:01.534Z,4.58
2019-04-20T08:04:33.502Z,4.28
2019-04-20T08:07:09.137Z,4.35
2019-04-20T08:09:39.360Z,4.33
2019-04-20T08:12:28.173Z,4.60
2019-04-20T08:15:01.449Z,4.58
2019-04-20T08:17:47.984Z,4.40
2019-04-20T08:19:50.913Z,4.15
2019-04-20T08:22:19.942Z,4.25
2019-04-20T08:24:46.858Z,3.87
2019-04-20T08:27:05.943Z,3.75
2019-04-20T08:29:45.184Z,4.37
2019-04-20T08:32:25.862Z,3.70
2019-04-20T08:35:02.065Z,3.95
2019-04-20T08:37:20.689Z,4.70
2019-04-20T08:39:58.814Z,4.25
2019-04-20T08:42:21.797Z,4.00
2019-04-20T08:45:00.080Z,5.00
2019-04-20T08:47:32.683Z,3.92
2019-04-20T08:50:16.533Z,6.55
2019-04-20T08:55:07.188Z,4.12
2019-04-20T08:57:15.854Z,4.00
2019-04-20T08:59:44.334Z,3.33
2019-04-20T09:02:15.076Z,3.60
2019-04-20T09:04:48.999Z,3.62
2019-04-20T09:07:15.277Z,3.20
2019-04-20T09:10:00.786Z,3.60
2019-04-20T09:12:24.393Z,3.52
2019-04-20T09:14:41.088Z,3.65
2019-04-20T09:17:29.680Z,4.00
2019-04-20T09:19:58.631Z,4.05
2019-04-20T09:22:40.513Z,4.05
2019-04-20T09:25:35.291Z,3.70
2019-04-20T09:27:39.740Z,3.90
2019-04-20T09:30:09.023Z,3.55
2019-04-20T09:32:43.932Z,3.77
2019-04-20T09:35:17.383Z,3.70
2019-04-20T09:37:53.087Z,3.52
2019-04-20T09:40:26.947Z,3.92
2019-04-20T09:42:39.198Z,4.05
2019-04-20T09:45:13.348Z,4.30
2019-04-20T09:47:43.590Z,4.22
2019-04-20T09:50:24.732Z,4.65
2019-04-20T09:52:51.686Z,3.90
2019-04-20T09:55:18.425Z,3.80
2019-04-20T09:57:49.948Z,4.25
2019-04-20T10:00:15.525Z,5.08
2019-04-20T10:02:33.045Z,4.50
2019-04-20T10:04:57.957Z,4.45
2019-04-20T10:07:27.794Z,4.30
2019-04-20T10:09:53.854Z,4.60
2019-04-20T10:12:21.905Z,4.10
2019-04-20T10:14:49.054Z,4.70
2019-04-20T10:17:15.901Z,3.98
2019-04-20T10:19:44.474Z,4.10
2019-04-20T10:22:10.906Z,4.33
2019-04-20T10:24:38.877Z,4.30
2019-04-20T10:27:06.310Z,4.62
2019-04-20T10:29:33.599Z,4.70
2019-04-20T10:32:01.629Z,4.80
2019-04-20T10:34:28.547Z,4.78
2019-04-20T10:37:03.876Z,4.50
2019-04-20T10:39:32.404Z,4.78
2019-04-20T10:42:02.443Z,4.47
2019-04-20T10:44:27.670Z,5.20
2019-04-20T10:46:54.403Z,4.62
2019-04-20T10:49:20.823Z,4.67
2019-04-20T10:51:47.607Z,4.55
2019-04-20T10:54:14.291Z,4.12
2019-04-20T10:56:41.456Z,3.75
2019-04-20T10:59:08.099Z,4.40
2019-04-20T11:01:35.743Z,4.80
2019-04-20T11:04:03.026Z,3.87
2019-04-20T11:06:29.551Z,7.47
2019-04-20T11:08:56.304Z,5.37
2019-04-20T11:11:26.958Z,4.65
2019-04-20T11:13:51.208Z,3.72
2019-04-20T11:16:18.081Z,4.53
2019-04-20T11:18:45.222Z,4.42
2019-04-20T11:21:11.784Z,4.35
2019-04-20T11:23:38.345Z,6.45
2019-04-20T11:26:06.246Z,6.08
2019-04-20T11:28:34.191Z,4.70
2019-04-20T11:31:01.919Z,4.65
2019-04-20T11:33:29.925Z,4.53
2019-04-20T11:35:57.075Z,4.75
2019-04-20T11:38:24.075Z,4.35
2019-04-20T11:41:02.735Z,4.95
2019-04-20T11:43:19.802Z,5.10
2019-04-20T11:45:46.763Z,6.33
2019-04-20T11:48:13.690Z,5.42
2019-04-20T11:50:40.160Z,4.70
2019-04-20T11:53:06.565Z,6.70
2019-04-20T11:55:34.079Z,4.55
2019-04-20T11:58:01.725Z,4.65
2019-04-20T12:00:52.197Z,4.90
2019-04-20T12:03:24.869Z,4.47
2019-04-20T12:05:51.492Z,4.00
2019-04-20T12:08:14.092Z,4.10
2019-04-20T12:10:44.693Z,4.53
2019-04-20T12:13:18.390Z,4.12
2019-04-20T12:15:45.498Z,15.40
2019-04-20T12:18:13.642Z,3.80
2019-04-20T12:20:40.861Z,4.00
2019-04-20T12:23:08.527Z,3.67
2019-04-20T12:25:36.717Z,3.83
2019-04-20T12:28:05.216Z,3.90
2019-04-20T12:30:33.256Z,3.87
2019-04-20T12:33:01.983Z,3.83
2019-04-20T12:35:29.900Z,3.67
2019-04-20T12:37:56.869Z,4.30
2019-04-20T12:40:23.958Z,3.87
2019-04-20T12:42:50.988Z,3.77
2019-04-20T12:45:19.881Z,3.90
2019-04-20T12:47:48.667Z,3.70
2019-04-20T12:50:17.349Z,4.00
2019-04-20T12:52:44.252Z,3.30
2019-04-20T12:55:12.340Z,3.30
2019-04-20T12:57:40.594Z,3.40
2019-04-20T13:00:11.968Z,3.08
2019-04-20T13:02:38.642Z,3.55
2019-04-20T13:05:07.200Z,3.20
2019-04-20T13:07:39.581Z,3.10
2019-04-20T13:10:03.986Z,3.33
2019-04-20T13:12:34.331Z,2.85
2019-04-20T13:15:10.588Z,2.90
2019-04-20T13:17:38.003Z,3.30
2019-04-20T13:20:06.054Z,2.90
2019-04-20T13:22:32.825Z,3.17
2019-04-20T13:24:59.260Z,3.00
2019-04-20T13:27:26.949Z,2.60
2019-04-20T13:29:54.661Z,4.00
2019-04-20T13:32:21.760Z,2.90
2019-04-20T13:34:48.249Z,2.67
2019-04-20T13:37:15.910Z,2.70
2019-04-20T13:39:42.717Z,2.50
2019-04-20T13:42:16.031Z,2.70
2019-04-20T13:44:37.370Z,2.35
2019-04-20T13:47:05.129Z,2.92
2019-04-20T13:49:31.669Z,2.30
2019-04-20T13:51:59.067Z,3.77
2019-04-20T13:54:28.042Z,2.85
2019-04-20T13:56:55.785Z,2.40
2019-04-20T13:59:36.169Z,2.50
2019-04-20T14:02:15.005Z,2.62
2019-04-20T14:04:44.504Z,2.80
2019-04-20T14:07:15.013Z,3.52
2019-04-20T14:09:39.796Z,3.25
2019-04-20T14:12:16.232Z,3.00
2019-04-20T14:14:35.056Z,2.90
2019-04-20T14:17:12.968Z,2.98
2019-04-20T14:19:39.507Z,3.40
2019-04-20T14:22:06.149Z,3.72
2019-04-20T14:24:33.153Z,3.15
2019-04-20T14:27:01.075Z,3.47
2019-04-20T14:29:27.661Z,3.60
2019-04-20T14:31:55.577Z,3.25
2019-04-20T14:34:22.804Z,3.17
2019-04-20T14:36:49.222Z,3.90
2019-04-20T14:39:16.199Z,3.27
2019-04-20T14:41:46.502Z,4.10
2019-04-20T14:44:14.027Z,2.98
2019-04-20T14:46:41.894Z,3.70
2019-04-20T14:49:08.535Z,3.20
2019-04-20T14:51:35.325Z,2.58
2019-04-20T14:54:01.787Z,4.00
2019-04-20T14:56:29.315Z,3.55
2019-04-20T14:59:01.884Z,3.22
2019-04-20T15:01:30.458Z,3.00
2019-04-20T15:04:05.788Z,4.42
2019-04-20T15:06:25.916Z,3.65
2019-04-20T15:08:58.850Z,2.62
2019-04-20T15:11:27.080Z,2.65
2019-04-20T15:13:58.509Z,2.72
2019-04-20T15:16:26.591Z,2.22
2019-04-20T15:18:58.139Z,2.55
2019-04-20T15:21:29.440Z,3.40
2019-04-20T15:23:59.493Z,2.70
2019-04-20T15:26:26.550Z,2.77
2019-04-20T15:28:54.467Z,3.02
2019-04-20T15:31:25.964Z,3.62
2019-04-20T15:33:52.822Z,4.45
2019-04-20T15:36:22.170Z,3.65
2019-04-20T15:38:49.383Z,3.47
2019-04-20T15:41:18.116Z,3.90
2019-04-20T15:43:45.410Z,3.87
2019-04-20T15:46:13.077Z,3.47
2019-04-20T15:48:41.762Z,5.15
2019-04-20T15:51:14.148Z,4.08
2019-04-20T15:53:41.761Z,4.80
2019-04-20T15:56:11.515Z,4.90
2019-04-20T15:58:36.963Z,4.53
2019-04-20T16:01:08.150Z,5.37
2019-04-20T16:03:55.313Z,4.40
2019-04-20T16:06:25.141Z,4.15
2019-04-20T16:08:54.466Z,4.10
2019-04-20T16:11:21.543Z,3.60
2019-04-20T16:13:52.983Z,3.55
2019-04-20T16:16:19.490Z,3.70
2019-04-20T16:18:46.626Z,3.80
2019-04-20T16:21:20.159Z,4.05
2019-04-20T16:23:43.625Z,3.55
2019-04-20T16:26:23.940Z,5.37
2019-04-20T16:28:50.582Z,4.78
2019-04-20T16:31:18.207Z,5.05
2019-04-20T16:33:46.360Z,4.08
2019-04-20T16:36:14.430Z,4.95
2019-04-20T16:41:34.082Z,5.85
2019-04-20T16:44:00.586Z,5.45
2019-04-20T16:46:28.099Z,4.85
2019-04-20T16:48:55.036Z,4.53
2019-04-20T16:51:22.641Z,3.98
2019-04-20T16:53:49.863Z,6.08
2019-04-20T16:56:21.027Z,4.53
2019-04-20T16:58:49.605Z,6.47
2019-04-20T17:01:17.087Z,5.70
2019-04-20T17:03:53.339Z,9.20
2019-04-20T17:06:13.790Z,8.20
2019-04-20T17:08:42.804Z,8.63
2019-04-20T17:11:09.806Z,9.83
2019-04-20T17:13:44.040Z,11.93
2019-04-20T17:16:07.789Z,6.75
2019-04-20T17:18:35.098Z,6.65
2019-04-20T17:21:07.307Z,5.87
2019-04-20T17:23:31.102Z,6.00
2019-04-20T17:25:57.924Z,7.25
2019-04-20T17:28:33.087Z,6.97
2019-04-20T17:31:19.678Z,7.10
2019-04-20T17:33:59.067Z,6.83
2019-04-20T17:36:24.576Z,5.75
2019-04-20T17:38:52.654Z,7.40
2019-04-20T17:41:36.198Z,7.55
2019-04-20T17:44:00.299Z,6.80
2019-04-20T17:46:24.448Z,6.95
2019-04-20T17:48:51.257Z,7.37
2019-04-20T17:51:31.480Z,6.80
2019-04-20T17:53:50.037Z,6.75
2019-04-20T17:56:10.326Z,7.53
2019-04-20T17:58:39.488Z,6.92
2019-04-20T18:01:34.814Z,6.80
2019-04-20T18:04:19.739Z,7.05
2019-04-20T18:06:39.757Z,7.67
2019-04-20T18:09:03.122Z,7.40
2019-04-20T18:11:22.576Z,7.25
2019-04-20T18:13:52.874Z,7.47
2019-04-20T18:16:41.870Z,7.40
2019-04-20T18:18:58.542Z,7.35
2019-04-20T18:21:24.488Z,7.55
2019-04-20T18:23:51.907Z,8.18
2019-04-20T18:26:40.970Z,8.58
2019-04-20T18:29:10.435Z,8.95
2019-04-20T18:31:17.610Z,9.80
2019-04-20T18:33:44.586Z,9.50
2019-04-20T18:36:14.311Z,10.65
2019-04-20T18:38:49.093Z,10.60
2019-04-20T18:41:18.346Z,11.90
2019-04-20T18:43:43.911Z,10.98
2019-04-20T18:46:21.913Z,10.30
2019-04-20T18:48:54.369Z,10.72
2019-04-20T18:51:01.785Z,11.60
2019-04-20T18:53:35.348Z,11.28
2019-04-20T18:55:59.487Z,11.25
2019-04-20T18:58:24.909Z,10.48
2019-04-20T19:00:52.448Z,11.25
2019-04-20T19:03:27.716Z,10.82
2019-04-20T19:05:49.544Z,10.85
2019-04-20T19:08:33.791Z,12.15
2019-04-20T19:11:00.041Z,11.40
2019-04-20T19:13:44.130Z,11.93
2019-04-20T19:16:22.703Z,11.97
2019-04-20T19:19:00.610Z,12.43
2019-04-20T19:21:15.261Z,13.08
2019-04-20T19:23:51.690Z,15.53
2019-04-20T19:26:17.263Z,15.35
2019-04-20T19:28:45.134Z,15.63
2019-04-20T19:31:22.270Z,16.20
2019-04-20T19:33:57.656Z,16.77
2019-04-20T19:36:14.675Z,16.90
2019-04-20T19:38:44.194Z,16.05
2019-04-20T19:41:16.398Z,15.68
2019-04-20T19:43:33.760Z,14.83
2019-04-20T19:46:35.607Z,15.45
2019-04-20T19:48:39.619Z,15.85
2019-04-20T19:51:22.383Z,15.75
2019-04-20T19:53:45.191Z,14.93
2019-04-20T19:56:03.730Z,15.58
2019-04-20T19:58:30.292Z,15.70
2019-04-20T20:00:54.205Z,16.17
2019-04-20T20:03:19.811Z,14.73
2019-04-20T20:05:48.898Z,16.30
2019-04-20T20:08:19.813Z,15.83
2019-04-20T20:10:44.542Z,15.35
2019-04-20T20:13:13.032Z,14.50
2019-04-20T20:15:41.755Z,15.40
2019-04-20T20:18:23.394Z,19.25
2019-04-20T20:20:55.337Z,17.52
2019-04-20T20:23:05.720Z,16.82
2019-04-20T20:25:37.307Z,17.40
2019-04-20T20:28:14.581Z,17.52
2019-04-20T20:30:35.325Z,16.23
2019-04-20T20:33:11.514Z,18.40
2019-04-20T20:35:29.786Z,16.82
2019-04-20T20:37:58.893Z,17.00
2019-04-20T20:40:29.840Z,17.00
2019-04-20T20:43:06.114Z,16.90
2019-04-20T20:45:30.814Z,18.15
2019-04-20T20:48:03.857Z,17.98
2019-04-20T20:50:37.600Z,17.70
2019-04-20T20:52:58.475Z,18.35
2019-04-20T20:55:27.215Z,19.10
2019-04-20T20:57:53.538Z,16.97
2019-04-20T21:00:22.637Z,17.92
2019-04-20T21:02:47.365Z,18.35
2019-04-20T21:05:06.705Z,17.87
2019-04-20T21:07:34.331Z,19.00
2019-04-20T21:10:00.852Z,19.02
2019-04-20T21:12:28.710Z,19.05
2019-04-20T21:14:55.281Z,20.02
2019-04-20T21:17:25.339Z,18.82
2019-04-20T21:20:07.331Z,20.62
2019-04-20T21:22:39.980Z,20.72
2019-04-20T21:24:51.128Z,20.65
2019-04-20T21:27:19.921Z,21.07
2019-04-20T21:29:51.424Z,20.92
2019-04-20T21:32:16.577Z,20.65
2019-04-20T21:34:49.190Z,21.65
2019-04-20T21:37:12.715Z,21.55
2019-04-20T21:39:44.703Z,20.75
2019-04-20T21:42:12.599Z,20.45
2019-04-20T21:44:40.315Z,20.25
2019-04-20T21:47:03.473Z,18.95
2019-04-20T21:49:43.869Z,18.82
2019-04-20T21:52:03.195Z,18.10
2019-04-20T21:54:27.681Z,19.10
2019-04-20T21:57:00.046Z,18.05
2019-04-20T21:59:28.046Z,19.35
2019-04-20T22:02:00.019Z,19.60
2019-04-20T22:04:22.488Z,18.50
2019-04-20T22:06:47.373Z,18.60
2019-04-20T22:09:14.774Z,19.55
2019-04-20T22:11:42.056Z,19.25
2019-04-20T22:14:15.890Z,18.87
2019-04-20T22:16:44.318Z,19.75
2019-04-20T22:19:20.055Z,19.50
2019-04-20T22:21:48.329Z,19.75
2019-04-20T22:24:13.740Z,19.95
2019-04-20T22:26:41.499Z,18.75
2019-04-20T22:29:00.445Z,20.27
2019-04-20T22:31:26.906Z,19.65
2019-04-20T22:33:54.374Z,19.40
2019-04-20T22:36:27.384Z,20.97
2019-04-20T22:39:11.693Z,19.32
2019-04-20T22:41:40.723Z,21.25
2019-04-20T22:44:13.600Z,21.20
2019-04-20T22:46:39.058Z,20.72
2019-04-20T22:49:20.869Z,21.87
2019-04-20T22:51:47.527Z,21.90
2019-04-20T22:54:17.234Z,20.60
2019-04-20T22:56:43.883Z,21.33
2019-04-20T22:59:06.242Z,20.52
2019-04-20T23:01:35.085Z,20.48
2019-04-20T23:03:54.886Z,22.65
2019-04-20T23:06:25.250Z,20.97
2019-04-20T23:08:57.599Z,23.85
2019-04-20T23:11:25.244Z,21.77
2019-04-20T23:13:49.992Z,22.62
2019-04-20T23:16:17.428Z,24.50
2019-04-20T23:18:44.417Z,22.27
2019-04-20T23:21:14.366Z,23.87
2019-04-20T23:23:41.493Z,23.77
2019-04-20T23:26:11.419Z,24.07
2019-04-20T23:28:40.949Z,23.50
2019-04-20T23:31:12.252Z,23.32
2019-04-20T23:33:36.047Z,23.70
2019-04-20T23:36:04.700Z,24.10
2019-04-20T23:38:32.638Z,20.65
2019-04-20T23:40:59.638Z,23.77
2019-04-20T23:43:38.472Z,22.70
2019-04-20T23:46:17.214Z,23.98
2019-04-20T23:48:44.757Z,22.42
2019-04-20T23:51:36.905Z,21.40
2019-04-20T23:53:52.250Z,23.27
2019-04-20T23:56:15.590Z,24.37
2019-04-20T23:58:44.147Z,23.38
